createdAt,value
2019-03-09T00:01:36.736Z,99357.48
2019-03-09T00:04:06.577Z,99352.75
2019-03-09T00:06:36.213Z,99355.19
2019-03-09T00:09:07.947Z,99354.53
2019-03-09T00:11:37.568Z,99359.98
2019-03-09T00:14:07.175Z,99360.33
2019-03-09T00:16:36.830Z,99361.76
2019-03-09T00:19:06.550Z,99361.81
2019-03-09T00:21:36.238Z,99370.19
2019-03-09T00:24:30.814Z,99366.83
2019-03-09T00:27:29.435Z,99367.77
2019-03-09T00:30:15.185Z,99359.41
2019-03-09T00:32:44.778Z,99361.27
2019-03-09T00:35:14.463Z,99355.56
2019-03-09T00:37:44.063Z,99349.41
2019-03-09T00:40:14.226Z,99343.23
2019-03-09T00:42:43.835Z,99354.55
2019-03-09T00:45:13.638Z,99348.23
2019-03-09T00:47:43.195Z,99338.05
2019-03-09T00:50:12.914Z,99344.05
2019-03-09T00:52:42.547Z,99337.78
2019-03-09T00:55:12.785Z,99339.47
2019-03-09T00:57:42.528Z,99340.55
2019-03-09T01:00:18.585Z,99337.11
2019-03-09T01:02:48.256Z,99346.47
2019-03-09T01:05:17.878Z,99332.48
2019-03-09T01:07:47.432Z,99332.22
2019-03-09T01:10:17.889Z,99334.28
2019-03-09T01:12:47.577Z,99333.06
2019-03-09T01:15:17.465Z,99330.98
2019-03-09T01:17:47.200Z,99329.05
2019-03-09T01:20:17.353Z,99327.28
2019-03-09T01:22:46.945Z,99318.14
2019-03-09T01:25:16.659Z,99316.52
2019-03-09T01:27:46.235Z,99312.05
2019-03-09T01:30:17.937Z,99314.64
2019-03-09T01:32:47.531Z,99307.00
2019-03-09T01:35:17.159Z,99309.23
2019-03-09T01:37:46.757Z,99303.12
2019-03-09T01:40:16.861Z,99302.90
2019-03-09T01:42:46.539Z,99308.77
2019-03-09T01:45:16.601Z,99308.70
2019-03-09T01:47:46.183Z,99311.40
2019-03-09T01:50:15.814Z,99313.11
2019-03-09T01:52:45.399Z,99319.94
2019-03-09T01:55:15.154Z,99319.99
2019-03-09T01:57:44.775Z,99306.44
2019-03-09T02:00:15.231Z,99305.93
2019-03-09T02:02:44.988Z,99310.11
2019-03-09T02:05:15.239Z,99307.08
2019-03-09T02:07:44.930Z,99296.31
2019-03-09T02:10:15.417Z,99307.25
2019-03-09T02:12:45.312Z,99309.52
2019-03-09T02:15:15.719Z,99302.64
2019-03-09T02:17:45.442Z,99327.94
2019-03-09T02:20:15.305Z,99326.12
2019-03-09T02:22:44.911Z,99328.17
2019-03-09T02:25:14.714Z,99329.23
2019-03-09T02:27:44.320Z,99329.55
2019-03-09T02:30:14.161Z,99324.01
2019-03-09T02:32:43.758Z,99316.36
2019-03-09T02:35:13.461Z,99315.91
2019-03-09T02:37:43.104Z,99326.23
2019-03-09T02:40:16.537Z,99320.52
2019-03-09T02:42:46.106Z,99318.31
2019-03-09T02:45:17.056Z,99316.59
2019-03-09T02:47:46.710Z,99320.52
2019-03-09T02:50:16.332Z,99315.64
2019-03-09T02:52:46.043Z,99314.78
2019-03-09T02:55:15.855Z,99308.00
2019-03-09T02:57:45.680Z,99310.98
2019-03-09T03:00:16.988Z,99321.56
2019-03-09T03:03:05.936Z,99327.80
2019-03-09T03:05:35.511Z,99331.45
2019-03-09T03:08:05.146Z,99325.22
2019-03-09T03:10:34.832Z,99330.80
2019-03-09T03:13:04.440Z,99336.14
2019-03-09T03:15:35.675Z,99345.20
2019-03-09T03:18:05.485Z,99299.92
2019-03-09T03:20:35.180Z,99361.20
2019-03-09T03:23:04.862Z,99365.19
2019-03-09T03:25:34.474Z,99354.27
2019-03-09T03:28:04.089Z,99353.02
2019-03-09T03:30:33.730Z,99355.38
2019-03-09T03:33:03.504Z,99353.67
2019-03-09T03:35:33.169Z,99362.19
2019-03-09T03:38:02.789Z,99353.58
2019-03-09T03:40:32.357Z,99351.44
2019-03-09T03:43:02.035Z,99355.99
2019-03-09T03:45:31.635Z,99349.94
2019-03-09T03:48:01.229Z,99357.41
2019-03-09T03:50:30.848Z,99354.78
2019-03-09T03:53:00.421Z,99346.92
2019-03-09T03:55:30.126Z,99341.12
2019-03-09T03:57:59.764Z,99346.94
2019-03-09T04:00:29.572Z,99345.92
2019-03-09T04:02:59.388Z,99349.87
2019-03-09T04:05:29.106Z,99361.16
2019-03-09T04:07:58.973Z,99361.65
2019-03-09T04:10:28.782Z,99354.97
2019-03-09T04:12:58.921Z,99354.08
2019-03-09T04:15:28.499Z,99352.46
2019-03-09T04:17:58.094Z,99353.89
2019-03-09T04:20:27.806Z,99360.06
2019-03-09T04:22:57.459Z,99363.22
2019-03-09T04:25:27.083Z,99359.84
2019-03-09T04:27:56.734Z,99365.52
2019-03-09T04:30:26.331Z,99372.33
2019-03-09T04:32:56.045Z,99375.47
2019-03-09T04:35:25.789Z,99365.50
2019-03-09T04:37:55.430Z,99381.58
2019-03-09T04:40:25.034Z,99361.59
2019-03-09T04:42:54.638Z,99368.08
2019-03-09T04:45:24.320Z,99367.05
2019-03-09T04:47:53.952Z,99366.58
2019-03-09T04:50:23.557Z,99374.67
2019-03-09T04:52:53.204Z,99381.63
2019-03-09T04:55:22.794Z,99392.76
2019-03-09T04:57:52.476Z,99397.97
2019-03-09T05:00:22.103Z,99395.34
2019-03-09T05:02:51.830Z,99409.89
2019-03-09T05:05:21.455Z,99407.55
2019-03-09T05:08:33.806Z,99408.52
2019-03-09T05:11:09.947Z,99405.02
2019-03-09T05:13:49.980Z,99404.86
2019-03-09T05:16:19.611Z,99411.03
2019-03-09T05:18:49.238Z,99411.96
2019-03-09T05:21:18.925Z,99414.67
2019-03-09T05:23:48.538Z,99413.94
2019-03-09T05:26:18.197Z,99419.36
2019-03-09T05:28:47.818Z,99418.91
2019-03-09T05:31:17.423Z,99420.88
2019-03-09T05:33:47.091Z,99431.67
2019-03-09T05:36:16.699Z,99429.49
2019-03-09T05:38:46.324Z,99435.10
2019-03-09T05:41:15.994Z,99439.90
2019-03-09T05:43:45.561Z,99432.42
2019-03-09T05:46:15.243Z,99433.17
2019-03-09T05:48:44.893Z,99432.39
2019-03-09T05:51:14.481Z,99441.54
2019-03-09T05:53:44.099Z,99439.78
2019-03-09T05:56:13.738Z,99440.38
2019-03-09T05:58:43.560Z,99439.33
2019-03-09T06:01:13.192Z,99433.11
2019-03-09T06:03:42.818Z,99434.97
2019-03-09T06:06:17.461Z,99435.66
2019-03-09T06:08:48.043Z,99435.94
2019-03-09T06:11:17.807Z,99448.35
2019-03-09T06:13:47.390Z,99449.20
2019-03-09T06:16:17.052Z,99453.74
2019-03-09T06:18:46.704Z,99464.09
2019-03-09T06:21:16.310Z,99458.97
2019-03-09T06:23:46.127Z,99460.83
2019-03-09T06:26:15.817Z,99457.24
2019-03-09T06:28:45.468Z,99467.13
2019-03-09T06:31:15.108Z,99462.44
2019-03-09T06:33:46.233Z,99468.05
2019-03-09T06:37:05.010Z,99459.91
2019-03-09T06:39:40.227Z,99457.73
2019-03-09T06:42:35.128Z,99457.27
2019-03-09T06:45:05.255Z,99461.99
2019-03-09T06:47:34.904Z,99466.80
2019-03-09T06:50:04.771Z,99470.76
2019-03-09T06:52:34.400Z,99476.50
2019-03-09T06:55:04.179Z,99472.89
2019-03-09T06:57:33.849Z,99482.15
2019-03-09T07:00:20.133Z,99480.59
2019-03-09T07:02:49.737Z,99489.23
2019-03-09T07:05:19.351Z,99492.23
2019-03-09T07:07:49.047Z,99499.13
2019-03-09T07:10:18.657Z,99491.56
2019-03-09T07:12:48.319Z,99489.97
2019-03-09T07:15:29.445Z,99483.72
2019-03-09T07:18:01.646Z,99477.14
2019-03-09T07:20:31.253Z,99473.98
2019-03-09T07:23:00.846Z,99475.09
2019-03-09T07:25:30.465Z,99474.50
2019-03-09T07:28:11.028Z,99480.79
2019-03-09T07:30:40.858Z,99481.30
2019-03-09T07:33:10.459Z,99484.34
2019-03-09T07:35:40.189Z,99481.28
2019-03-09T07:38:09.782Z,99479.96
2019-03-09T07:40:39.482Z,99486.00
2019-03-09T07:43:09.268Z,99484.53
2019-03-09T07:45:38.908Z,99480.95
2019-03-09T07:48:08.638Z,99480.33
2019-03-09T07:50:38.312Z,99480.41
2019-03-09T07:53:07.903Z,99478.23
2019-03-09T07:55:37.595Z,99478.81
2019-03-09T07:58:07.713Z,99472.67
2019-03-09T08:00:37.437Z,99469.09
2019-03-09T08:03:07.093Z,99469.39
2019-03-09T08:05:36.684Z,99461.97
2019-03-09T08:08:06.398Z,99471.18
2019-03-09T08:10:36.001Z,99470.78
2019-03-09T08:13:05.792Z,99460.23
2019-03-09T08:15:35.439Z,99460.64
2019-03-09T08:18:05.056Z,99456.52
2019-03-09T08:20:34.747Z,99452.94
2019-03-09T08:23:04.444Z,99450.22
2019-03-09T08:25:34.042Z,99454.46
2019-03-09T08:28:03.715Z,99449.47
2019-03-09T08:30:33.377Z,99465.95
2019-03-09T08:33:03.015Z,99452.27
2019-03-09T08:35:32.606Z,99459.30
2019-03-09T08:38:02.282Z,99466.85
2019-03-09T08:40:31.945Z,99466.70
2019-03-09T08:43:01.682Z,99471.09
2019-03-09T08:45:31.367Z,99467.58
2019-03-09T08:48:00.976Z,99465.86
2019-03-09T08:50:30.571Z,99457.30
2019-03-09T08:53:00.216Z,99465.77
2019-03-09T08:55:29.851Z,99466.57
2019-03-09T08:57:59.479Z,99466.92
2019-03-09T09:00:31.284Z,99459.56
2019-03-09T09:03:01.155Z,99465.41
2019-03-09T09:05:31.020Z,99463.00
2019-03-09T09:08:00.776Z,99464.83
2019-03-09T09:10:30.362Z,99460.01
2019-03-09T09:13:00.049Z,99465.72
2019-03-09T09:15:29.705Z,99463.81
2019-03-09T09:17:59.306Z,99458.88
2019-03-09T09:20:28.937Z,99453.03
2019-03-09T09:22:58.538Z,99448.70
2019-03-09T09:25:28.223Z,99455.08
2019-03-09T09:27:57.856Z,99455.08
2019-03-09T09:30:28.111Z,99464.63
2019-03-09T09:32:57.793Z,99455.68
2019-03-09T09:35:27.573Z,99446.48
2019-03-09T09:37:57.197Z,99449.45
2019-03-09T09:40:27.129Z,99447.31
2019-03-09T09:42:56.955Z,99441.85
2019-03-09T09:45:26.782Z,99448.69
2019-03-09T09:47:56.440Z,99437.69
2019-03-09T09:50:26.037Z,99440.72
2019-03-09T09:52:55.739Z,99432.11
2019-03-09T09:55:25.409Z,99431.88
2019-03-09T09:57:55.028Z,99426.69
2019-03-09T10:00:25.928Z,99424.86
2019-03-09T10:02:55.568Z,99424.48
2019-03-09T10:05:25.308Z,99430.42
2019-03-09T10:07:54.998Z,99426.69
2019-03-09T10:10:25.006Z,99422.50
2019-03-09T10:12:55.976Z,99423.60
2019-03-09T10:15:26.738Z,99435.21
2019-03-09T10:17:56.394Z,99417.33
2019-03-09T10:20:26.127Z,99426.27
2019-03-09T10:23:03.695Z,99407.39
2019-03-09T10:25:27.109Z,99415.06
2019-03-09T10:27:56.700Z,99406.48
2019-03-09T10:30:26.437Z,99403.03
2019-03-09T10:32:56.089Z,99383.36
2019-03-09T10:35:25.664Z,99380.94
2019-03-09T10:37:55.266Z,99374.54
2019-03-09T10:40:24.907Z,99366.71
2019-03-09T10:42:54.531Z,99364.00
2019-03-09T10:45:24.393Z,99353.63
2019-03-09T10:47:54.042Z,99338.25
2019-03-09T10:50:25.864Z,99337.20
2019-03-09T10:52:55.071Z,99247.09
2019-03-09T10:55:24.740Z,99320.59
2019-03-09T10:57:54.375Z,99316.64
2019-03-09T11:00:26.519Z,99310.61
2019-03-09T11:02:56.207Z,99304.41
2019-03-09T11:05:26.001Z,99309.58
2019-03-09T11:07:55.820Z,99305.21
2019-03-09T11:10:25.588Z,99293.41
2019-03-09T11:12:55.234Z,99288.33
2019-03-09T11:15:24.817Z,99284.98
2019-03-09T11:17:54.461Z,99282.84
2019-03-09T11:20:24.406Z,99281.30
2019-03-09T11:22:54.060Z,99268.38
2019-03-09T11:25:23.639Z,99271.98
2019-03-09T11:27:53.250Z,99261.27
2019-03-09T11:30:26.244Z,99250.73
2019-03-09T11:32:55.907Z,99260.89
2019-03-09T11:35:25.526Z,99240.42
2019-03-09T11:37:55.160Z,99240.91
2019-03-09T11:40:24.736Z,99238.42
2019-03-09T11:42:54.346Z,99238.87
2019-03-09T11:45:23.948Z,99229.73
2019-03-09T11:47:53.557Z,99211.13
2019-03-09T11:50:23.184Z,99221.84
2019-03-09T11:52:52.884Z,99219.30
2019-03-09T11:55:22.514Z,99210.06
2019-03-09T11:57:52.123Z,99208.09
2019-03-09T12:00:25.841Z,99208.11
2019-03-09T12:02:55.569Z,99208.98
2019-03-09T12:05:25.173Z,99202.86
2019-03-09T12:07:54.980Z,99197.55
2019-03-09T12:10:24.665Z,99191.28
2019-03-09T12:12:54.304Z,99201.68
2019-03-09T12:15:23.904Z,99182.24
2019-03-09T12:17:53.645Z,99194.16
2019-03-09T12:20:25.367Z,99197.85
2019-03-09T12:23:00.961Z,99190.52
2019-03-09T12:25:26.408Z,99190.65
2019-03-09T12:27:56.023Z,99186.11
2019-03-09T12:30:25.670Z,99183.04
2019-03-09T12:32:55.358Z,99173.33
2019-03-09T12:35:25.038Z,99167.48
2019-03-09T12:37:54.695Z,99171.19
2019-03-09T12:40:24.334Z,99165.27
2019-03-09T12:42:54.060Z,99162.52
2019-03-09T12:45:23.790Z,99161.81
2019-03-09T12:47:53.459Z,99162.02
2019-03-09T12:50:23.144Z,99157.76
2019-03-09T12:52:52.781Z,99155.49
2019-03-09T12:55:22.408Z,99157.27
2019-03-09T12:57:52.058Z,99146.87
2019-03-09T13:00:21.959Z,99153.97
2019-03-09T13:02:51.598Z,99137.64
2019-03-09T13:05:21.647Z,99140.55
2019-03-09T13:07:51.264Z,99136.11
2019-03-09T13:10:21.066Z,99133.89
2019-03-09T13:12:50.708Z,99131.23
2019-03-09T13:15:20.561Z,99135.56
2019-03-09T13:17:50.195Z,99126.59
2019-03-09T13:20:19.913Z,99125.00
2019-03-09T13:22:49.581Z,99115.70
2019-03-09T13:25:19.240Z,99113.11
2019-03-09T13:27:48.907Z,99109.70
2019-03-09T13:30:19.871Z,99099.02
2019-03-09T13:32:49.687Z,99106.13
2019-03-09T13:35:19.301Z,99099.50
2019-03-09T13:37:49.046Z,99106.02
2019-03-09T13:40:18.788Z,99104.91
2019-03-09T13:42:48.452Z,99105.11
2019-03-09T13:45:18.252Z,99100.73
2019-03-09T13:47:47.853Z,99102.87
2019-03-09T13:50:17.524Z,99100.97
2019-03-09T13:52:47.189Z,99110.00
2019-03-09T13:55:16.851Z,99108.89
2019-03-09T13:57:46.449Z,99111.33
2019-03-09T14:00:16.322Z,99113.25
2019-03-09T14:02:46.050Z,99108.10
2019-03-09T14:05:16.000Z,99117.83
2019-03-09T14:07:45.722Z,99117.17
2019-03-09T14:10:15.637Z,99114.25
2019-03-09T14:12:45.254Z,99113.06
2019-03-09T14:15:15.296Z,99108.63
2019-03-09T14:17:44.935Z,99107.39
2019-03-09T14:20:14.880Z,99106.99
2019-03-09T14:22:44.572Z,99105.35
2019-03-09T14:25:15.051Z,99106.44
2019-03-09T14:27:44.780Z,99096.20
2019-03-09T14:30:15.307Z,99096.47
2019-03-09T14:32:44.979Z,99092.13
2019-03-09T14:35:14.840Z,99084.77
2019-03-09T14:37:44.710Z,99089.20
2019-03-09T14:40:15.017Z,99091.20
2019-03-09T14:42:44.810Z,99083.56
2019-03-09T14:45:16.301Z,99081.78
2019-03-09T14:47:46.037Z,99080.30
2019-03-09T14:50:16.294Z,99080.02
2019-03-09T14:52:46.222Z,99076.23
2019-03-09T14:55:15.887Z,99078.27
2019-03-09T14:57:45.489Z,99078.64
2019-03-09T15:00:17.678Z,99084.02
2019-03-09T15:02:47.278Z,99079.56
2019-03-09T15:05:16.963Z,99078.23
2019-03-09T15:07:46.597Z,99078.42
2019-03-09T15:10:16.751Z,99082.44
2019-03-09T15:12:46.462Z,99084.94
2019-03-09T15:15:16.448Z,99087.69
2019-03-09T15:17:46.047Z,99085.16
2019-03-09T15:20:16.856Z,99090.41
2019-03-09T15:22:46.530Z,99094.98
2019-03-09T15:25:16.300Z,99093.09
2019-03-09T15:27:46.014Z,99096.13
2019-03-09T15:30:16.486Z,99096.08
2019-03-09T15:32:46.094Z,99107.60
2019-03-09T15:35:16.773Z,99112.95
2019-03-09T15:37:46.575Z,99111.50
2019-03-09T15:40:17.425Z,99105.17
2019-03-09T15:42:47.481Z,99102.79
2019-03-09T15:45:17.463Z,99099.28
2019-03-09T15:47:47.215Z,99101.69
2019-03-09T15:50:17.059Z,99103.33
2019-03-09T15:52:46.833Z,99097.66
2019-03-09T15:55:16.740Z,99107.05
2019-03-09T15:57:46.389Z,99106.71
2019-03-09T16:00:17.921Z,99105.92
2019-03-09T16:02:47.598Z,99103.70
2019-03-09T16:05:17.219Z,99094.63
2019-03-09T16:07:46.954Z,99091.48
2019-03-09T16:10:16.859Z,99097.41
2019-03-09T16:12:46.674Z,99085.06
2019-03-09T16:15:16.517Z,99087.30
2019-03-09T16:17:46.122Z,99080.70
2019-03-09T16:20:16.730Z,99073.13
2019-03-09T16:22:46.462Z,99084.28
2019-03-09T16:25:16.304Z,99082.83
2019-03-09T16:27:45.972Z,99080.01
2019-03-09T16:30:18.072Z,99087.02
2019-03-09T16:32:47.632Z,99081.84
2019-03-09T16:35:17.409Z,99082.57
2019-03-09T16:37:47.044Z,99078.64
2019-03-09T16:40:16.761Z,99081.35
2019-03-09T16:42:46.473Z,99080.86
2019-03-09T16:45:16.279Z,99077.35
2019-03-09T16:47:45.893Z,99075.56
2019-03-09T16:50:15.722Z,99077.07
2019-03-09T16:52:45.540Z,99076.16
2019-03-09T16:55:15.575Z,99078.20
2019-03-09T16:57:45.219Z,99075.30
2019-03-09T17:00:17.340Z,99079.84
2019-03-09T17:02:46.986Z,99086.36
2019-03-09T17:05:16.806Z,99085.23
2019-03-09T17:07:46.502Z,99075.77
2019-03-09T17:10:18.786Z,99087.73
2019-03-09T17:12:48.178Z,99089.57
2019-03-09T17:15:17.850Z,99092.70
2019-03-09T17:17:47.561Z,99096.45
2019-03-09T17:20:17.468Z,99092.38
2019-03-09T17:22:47.222Z,99095.44
2019-03-09T17:25:17.167Z,99100.07
2019-03-09T17:27:46.808Z,99097.73
2019-03-09T17:30:18.915Z,99097.45
2019-03-09T17:32:48.677Z,99101.48
2019-03-09T17:35:18.300Z,99107.00
2019-03-09T17:37:47.910Z,99103.39
2019-03-09T17:40:17.789Z,99100.66
2019-03-09T17:42:47.542Z,99104.31
2019-03-09T17:45:18.688Z,99106.86
2019-03-09T17:47:48.364Z,99111.70
2019-03-09T17:50:18.100Z,99102.83
2019-03-09T17:52:47.695Z,99100.33
2019-03-09T17:55:17.346Z,99045.28
2019-03-09T17:57:47.006Z,99101.02
2019-03-09T18:00:19.095Z,99110.73
2019-03-09T18:02:48.717Z,99103.57
2019-03-09T18:05:19.726Z,99103.35
2019-03-09T18:07:49.681Z,99097.12
2019-03-09T18:10:26.452Z,99097.92
2019-03-09T18:12:56.179Z,99095.55
2019-03-09T18:15:25.793Z,99088.91
2019-03-09T18:17:55.413Z,99084.97
2019-03-09T18:20:25.047Z,99082.69
2019-03-09T18:22:54.696Z,99079.37
2019-03-09T18:25:24.377Z,99078.01
2019-03-09T18:27:53.978Z,99076.25
2019-03-09T18:30:23.596Z,99080.92
2019-03-09T18:32:53.259Z,99074.66
2019-03-09T18:35:22.854Z,99079.67
2019-03-09T18:37:52.530Z,99079.55
2019-03-09T18:40:22.196Z,99076.96
2019-03-09T18:42:51.791Z,99077.27
2019-03-09T18:45:21.421Z,99077.69
2019-03-09T18:47:51.048Z,99079.07
2019-03-09T18:50:20.832Z,99074.95
2019-03-09T18:52:50.516Z,99083.04
2019-03-09T18:55:20.162Z,99080.47
2019-03-09T18:57:49.880Z,99086.06
2019-03-09T19:00:19.517Z,98989.34
2019-03-09T19:02:49.302Z,99080.92
2019-03-09T19:05:19.179Z,99083.02
2019-03-09T19:07:48.809Z,99084.00
2019-03-09T19:10:18.499Z,99086.20
2019-03-09T19:12:48.112Z,99083.45
2019-03-09T19:15:18.038Z,99083.48
2019-03-09T19:17:47.908Z,99086.21
2019-03-09T19:20:17.786Z,99084.23
2019-03-09T19:22:47.399Z,99088.25
2019-03-09T19:25:17.321Z,99092.72
2019-03-09T19:27:47.022Z,99097.56
2019-03-09T19:30:16.958Z,99102.47
2019-03-09T19:32:46.640Z,99106.88
2019-03-09T19:35:16.408Z,99112.67
2019-03-09T19:37:46.128Z,99122.93
2019-03-09T19:40:16.151Z,99128.19
2019-03-09T19:42:45.887Z,99127.80
2019-03-09T19:45:15.997Z,99126.16
2019-03-09T19:47:45.870Z,99123.78
2019-03-09T19:50:17.219Z,99109.33
2019-03-09T19:52:46.924Z,99121.11
2019-03-09T19:55:16.871Z,99147.95
2019-03-09T19:57:46.591Z,99146.52
2019-03-09T20:00:16.281Z,99153.34
2019-03-09T20:02:45.936Z,99146.94
2019-03-09T20:05:15.695Z,99144.75
2019-03-09T20:07:45.312Z,99151.29
2019-03-09T20:10:15.190Z,99149.18
2019-03-09T20:12:44.836Z,99151.11
2019-03-09T20:15:14.930Z,99159.27
2019-03-09T20:17:45.860Z,99168.77
2019-03-09T20:20:16.317Z,99170.28
2019-03-09T20:22:46.111Z,99177.73
2019-03-09T20:25:15.903Z,99179.50
2019-03-09T20:27:45.450Z,99187.57
2019-03-09T20:30:16.580Z,99180.91
2019-03-09T20:32:46.274Z,99187.61
2019-03-09T20:35:15.999Z,99185.77
2019-03-09T20:37:45.742Z,99181.14
2019-03-09T20:40:15.625Z,99184.91
2019-03-09T20:42:45.232Z,99193.53
2019-03-09T20:45:15.151Z,99186.03
2019-03-09T20:47:44.808Z,99181.41
2019-03-09T20:50:15.404Z,99184.65
2019-03-09T20:52:45.040Z,99175.80
2019-03-09T20:55:14.759Z,99181.11
2019-03-09T20:57:44.419Z,99179.72
2019-03-09T21:00:15.967Z,99179.61
2019-03-09T21:02:45.574Z,99179.59
2019-03-09T21:05:15.399Z,99172.63
2019-03-09T21:07:45.059Z,99176.47
2019-03-09T21:10:15.911Z,99176.56
2019-03-09T21:12:59.558Z,99169.98
2019-03-09T21:15:29.253Z,99169.80
2019-03-09T21:17:58.895Z,99177.84
2019-03-09T21:20:28.487Z,99174.13
2019-03-09T21:22:58.079Z,99175.91
2019-03-09T21:25:27.851Z,99167.08
2019-03-09T21:27:57.451Z,99170.27
2019-03-09T21:30:27.086Z,99159.17
2019-03-09T21:32:56.782Z,99163.98
2019-03-09T21:35:26.373Z,99162.45
2019-03-09T21:37:56.033Z,99159.80
2019-03-09T21:40:25.641Z,99165.81
2019-03-09T21:42:55.276Z,99165.64
2019-03-09T21:45:25.001Z,99168.03
2019-03-09T21:47:54.601Z,99166.17
2019-03-09T21:50:24.295Z,99162.73
2019-03-09T21:52:53.927Z,99162.87
2019-03-09T21:55:23.511Z,99174.55
2019-03-09T21:57:53.254Z,99168.92
2019-03-09T22:00:22.973Z,99166.68
2019-03-09T22:02:52.608Z,99172.02
2019-03-09T22:05:22.222Z,99166.87
2019-03-09T22:07:51.816Z,99170.23
2019-03-09T22:10:21.483Z,99161.56
2019-03-09T22:12:51.147Z,99158.45
2019-03-09T22:15:20.881Z,99155.91
2019-03-09T22:17:50.507Z,99164.23
2019-03-09T22:20:20.727Z,99153.03
2019-03-09T22:22:50.484Z,99148.50
2019-03-09T22:25:21.004Z,99157.35
2019-03-09T22:27:50.759Z,99154.37
2019-03-09T22:30:20.435Z,99156.50
2019-03-09T22:32:50.039Z,99154.64
2019-03-09T22:35:19.710Z,99154.97
2019-03-09T22:37:49.320Z,99154.84
2019-03-09T22:40:18.924Z,99155.61
2019-03-09T22:42:48.572Z,99149.16
2019-03-09T22:45:18.192Z,99154.05
2019-03-09T22:47:47.868Z,99158.77
2019-03-09T22:50:17.591Z,99147.12
2019-03-09T22:52:47.317Z,99148.86
2019-03-09T22:55:17.227Z,99151.48
2019-03-09T22:57:46.965Z,99158.12
2019-03-09T23:00:17.936Z,99159.50
2019-03-09T23:02:47.526Z,99164.92
2019-03-09T23:05:17.230Z,99164.41
2019-03-09T23:07:46.827Z,99170.34
2019-03-09T23:10:17.101Z,99169.75
2019-03-09T23:12:46.760Z,99164.69
2019-03-09T23:15:16.804Z,99167.40
2019-03-09T23:17:46.488Z,99166.67
2019-03-09T23:20:16.206Z,99167.12
2019-03-09T23:22:45.830Z,99171.89
2019-03-09T23:25:15.734Z,99170.13
2019-03-09T23:27:45.432Z,99168.82
2019-03-09T23:30:16.582Z,99171.47
2019-03-09T23:32:46.176Z,99178.67
2019-03-09T23:35:16.495Z,99175.94
2019-03-09T23:37:46.551Z,99180.27
2019-03-09T23:40:17.032Z,99180.95
2019-03-09T23:42:46.646Z,99189.59
2019-03-09T23:45:16.852Z,99180.89
2019-03-09T23:47:46.607Z,99196.41
2019-03-09T23:50:17.017Z,99180.64
2019-03-09T23:52:47.148Z,99182.31
2019-03-09T23:55:22.415Z,99188.80
2019-03-09T23:57:49.455Z,99188.07
